createdAt,value
2019-02-06T00:01:14.027Z,42.77
2019-02-06T00:03:42.583Z,38.83
2019-02-06T00:06:11.175Z,39.30
2019-02-06T00:08:39.603Z,39.60
2019-02-06T00:11:08.499Z,49.43
2019-02-06T00:13:37.000Z,37.83
2019-02-06T00:16:06.021Z,37.43
2019-02-06T00:18:34.788Z,44.47
2019-02-06T00:21:03.292Z,40.27
2019-02-06T00:23:31.741Z,43.90
2019-02-06T00:26:00.240Z,50.63
2019-02-06T00:28:29.063Z,42.27
2019-02-06T00:30:57.541Z,39.70
2019-02-06T00:33:25.993Z,39.03
2019-02-06T00:35:54.429Z,52.93
2019-02-06T00:38:22.878Z,43.13
2019-02-06T00:40:51.373Z,40.93
2019-02-06T00:43:19.899Z,52.83
2019-02-06T00:45:48.396Z,52.43
2019-02-06T00:48:16.850Z,54.40
2019-02-06T00:50:45.273Z,49.43
2019-02-06T00:53:13.723Z,48.50
2019-02-06T00:55:42.217Z,51.73
2019-02-06T00:58:10.744Z,53.23
2019-02-06T01:00:39.673Z,48.17
2019-02-06T01:03:08.571Z,54.27
2019-02-06T01:05:38.771Z,51.33
2019-02-06T01:08:07.234Z,42.57
2019-02-06T01:10:35.667Z,46.60
2019-02-06T01:13:04.248Z,64.43
2019-02-06T01:15:32.671Z,51.70
2019-02-06T01:18:01.196Z,56.17
2019-02-06T01:20:29.799Z,52.17
2019-02-06T01:22:58.291Z,56.43
2019-02-06T01:25:26.773Z,53.03
2019-02-06T01:27:55.228Z,58.87
2019-02-06T01:30:25.299Z,55.93
2019-02-06T01:32:53.737Z,55.67
2019-02-06T01:35:22.228Z,55.57
2019-02-06T01:37:50.749Z,62.10
2019-02-06T01:40:20.920Z,52.90
2019-02-06T01:42:49.383Z,57.20
2019-02-06T01:45:21.831Z,53.00
2019-02-06T01:47:50.318Z,56.53
2019-02-06T01:50:19.340Z,61.70
2019-02-06T01:52:47.897Z,58.10
2019-02-06T01:55:16.591Z,53.20
2019-02-06T01:57:45.012Z,55.07
2019-02-06T02:00:18.461Z,53.70
2019-02-06T02:02:46.955Z,52.33
2019-02-06T02:05:17.830Z,54.87
2019-02-06T02:07:47.231Z,51.93
2019-02-06T02:10:15.991Z,52.37
2019-02-06T02:12:44.871Z,48.37
2019-02-06T02:15:18.472Z,46.00
2019-02-06T02:17:47.201Z,46.77
2019-02-06T02:20:18.206Z,59.70
2019-02-06T02:22:47.031Z,53.27
2019-02-06T02:25:15.751Z,45.60
2019-02-06T02:27:44.455Z,44.70
2019-02-06T02:30:19.446Z,46.87
2019-02-06T02:32:48.568Z,50.77
2019-02-06T02:35:17.320Z,49.73
2019-02-06T02:37:46.003Z,47.30
2019-02-06T02:40:14.677Z,44.00
2019-02-06T02:42:43.381Z,46.43
2019-02-06T02:45:14.844Z,50.73
2019-02-06T02:47:43.942Z,54.33
2019-02-06T02:50:13.006Z,44.77
2019-02-06T02:52:41.782Z,44.20
2019-02-06T02:55:12.052Z,46.73
2019-02-06T02:57:40.862Z,37.40
2019-02-06T03:00:19.727Z,46.07
2019-02-06T03:02:52.751Z,42.03
2019-02-06T03:05:23.333Z,42.37
2019-02-06T03:07:51.912Z,46.17
2019-02-06T03:10:20.586Z,37.80
2019-02-06T03:12:49.362Z,39.30
2019-02-06T03:15:18.128Z,39.60
2019-02-06T03:17:46.670Z,40.70
2019-02-06T03:20:15.329Z,42.07
2019-02-06T03:22:44.042Z,36.90
2019-02-06T03:25:14.279Z,32.37
2019-02-06T03:27:43.033Z,35.20
2019-02-06T03:30:14.669Z,38.30
2019-02-06T03:32:43.483Z,34.97
2019-02-06T03:35:12.308Z,41.27
2019-02-06T03:37:41.004Z,38.90
2019-02-06T03:40:18.118Z,38.63
2019-02-06T03:42:46.883Z,42.00
2019-02-06T03:45:16.136Z,36.10
2019-02-06T03:47:44.955Z,40.37
2019-02-06T03:50:18.615Z,42.23
2019-02-06T03:52:47.340Z,37.07
2019-02-06T03:55:16.806Z,42.40
2019-02-06T03:57:45.545Z,37.10
2019-02-06T04:00:18.928Z,38.97
2019-02-06T04:02:47.611Z,35.83
2019-02-06T04:05:16.336Z,39.40
2019-02-06T04:07:45.082Z,39.30
2019-02-06T04:10:20.627Z,37.27
2019-02-06T04:12:49.321Z,40.63
2019-02-06T04:15:18.027Z,39.60
2019-02-06T04:17:46.662Z,42.73
2019-02-06T04:20:16.367Z,43.13
2019-02-06T04:22:45.112Z,40.07
2019-02-06T04:25:15.034Z,45.50
2019-02-06T04:27:43.928Z,42.90
2019-02-06T04:30:18.089Z,43.80
2019-02-06T04:32:46.924Z,37.57
2019-02-06T04:35:16.169Z,42.50
2019-02-06T04:37:44.696Z,41.80
2019-02-06T04:40:20.657Z,41.43
2019-02-06T04:42:49.505Z,44.53
2019-02-06T04:45:19.194Z,40.27
2019-02-06T04:47:47.787Z,45.93
2019-02-06T04:50:17.582Z,42.10
2019-02-06T04:52:46.433Z,45.20
2019-02-06T04:55:20.707Z,47.87
2019-02-06T04:57:49.444Z,44.63
2019-02-06T05:00:20.822Z,42.70
2019-02-06T05:02:49.352Z,43.10
2019-02-06T05:05:17.960Z,51.00
2019-02-06T05:07:46.409Z,45.53
2019-02-06T05:10:15.185Z,45.37
2019-02-06T05:12:44.197Z,47.50
2019-02-06T05:15:14.267Z,52.77
2019-02-06T05:17:42.798Z,46.90
2019-02-06T05:20:32.650Z,48.10
2019-02-06T05:23:01.110Z,48.47
2019-02-06T05:25:29.893Z,47.40
2019-02-06T05:27:58.422Z,41.33
2019-02-06T05:30:26.859Z,47.10
2019-02-06T05:32:55.323Z,48.27
2019-02-06T05:35:23.927Z,44.80
2019-02-06T05:37:52.460Z,41.50
2019-02-06T05:40:20.970Z,49.03
2019-02-06T05:42:52.637Z,43.03
2019-02-06T05:45:19.720Z,45.93
2019-02-06T05:47:48.184Z,49.13
2019-02-06T05:50:19.740Z,48.77
2019-02-06T05:52:48.270Z,49.70
2019-02-06T05:55:17.843Z,50.40
2019-02-06T05:57:46.995Z,48.10
2019-02-06T06:00:25.961Z,43.30
2019-02-06T06:02:54.528Z,49.03
2019-02-06T06:05:23.035Z,51.00
2019-02-06T06:07:51.551Z,46.67
2019-02-06T06:10:20.184Z,46.70
2019-02-06T06:12:48.618Z,48.03
2019-02-06T06:15:20.001Z,43.40
2019-02-06T06:17:48.427Z,48.87
2019-02-06T06:20:19.234Z,45.77
2019-02-06T06:22:47.805Z,45.03
2019-02-06T06:25:18.158Z,50.23
2019-02-06T06:27:46.994Z,45.90
2019-02-06T06:30:20.347Z,45.73
2019-02-06T06:32:48.984Z,48.07
2019-02-06T06:35:17.480Z,48.43
2019-02-06T06:37:57.771Z,44.00
2019-02-06T06:40:18.911Z,45.60
2019-02-06T06:42:47.785Z,42.33
2019-02-06T06:45:21.582Z,48.60
2019-02-06T06:47:50.090Z,42.80
2019-02-06T06:50:21.158Z,45.70
2019-02-06T06:52:49.665Z,44.03
2019-02-06T06:55:18.333Z,43.30
2019-02-06T06:57:47.139Z,48.20
2019-02-06T07:00:18.408Z,47.90
2019-02-06T07:02:46.925Z,47.87
2019-02-06T07:05:16.526Z,48.50
2019-02-06T07:07:45.127Z,49.93
2019-02-06T07:10:16.904Z,47.30
2019-02-06T07:12:45.399Z,47.10
2019-02-06T07:15:25.097Z,45.67
2019-02-06T07:17:53.595Z,49.53
2019-02-06T07:20:22.133Z,50.13
2019-02-06T07:22:50.635Z,51.80
2019-02-06T07:25:20.013Z,48.37
2019-02-06T07:27:48.581Z,52.33
2019-02-06T07:30:28.834Z,47.33
2019-02-06T07:32:57.407Z,43.70
2019-02-06T07:35:25.933Z,46.13
2019-02-06T07:37:54.442Z,41.43
2019-02-06T07:40:22.974Z,49.60
2019-02-06T07:42:51.645Z,43.63
2019-02-06T07:45:21.083Z,42.33
2019-02-06T07:47:49.848Z,44.90
2019-02-06T07:50:26.830Z,44.33
2019-02-06T07:52:55.628Z,42.63
2019-02-06T07:55:24.129Z,46.37
2019-02-06T07:57:52.727Z,42.57
2019-02-06T08:00:21.235Z,43.70
2019-02-06T08:02:49.761Z,38.97
2019-02-06T08:05:20.151Z,34.33
2019-02-06T08:07:48.945Z,43.50
2019-02-06T08:10:32.505Z,40.87
2019-02-06T08:13:01.708Z,40.43
2019-02-06T08:15:30.384Z,40.80
2019-02-06T08:17:58.912Z,37.47
2019-02-06T08:20:27.480Z,36.63
2019-02-06T08:22:56.285Z,37.70
2019-02-06T08:25:25.361Z,37.67
2019-02-06T08:27:53.959Z,38.10
2019-02-06T08:30:24.843Z,38.27
2019-02-06T08:32:53.554Z,38.67
2019-02-06T08:35:22.119Z,35.00
2019-02-06T08:37:51.294Z,32.87
2019-02-06T08:40:22.378Z,33.77
2019-02-06T08:42:50.915Z,37.40
2019-02-06T08:45:19.586Z,33.97
2019-02-06T08:47:48.119Z,34.33
2019-02-06T08:50:18.900Z,30.10
2019-02-06T08:52:47.879Z,31.00
2019-02-06T08:55:19.020Z,35.53
2019-02-06T08:57:47.619Z,33.00
2019-02-06T09:00:19.260Z,28.73
2019-02-06T09:02:47.794Z,29.50
2019-02-06T09:05:16.367Z,31.03
2019-02-06T09:07:45.198Z,26.77
2019-02-06T09:10:16.809Z,25.37
2019-02-06T09:12:45.343Z,28.33
2019-02-06T09:15:14.716Z,26.90
2019-02-06T09:17:43.250Z,27.13
2019-02-06T09:20:14.905Z,25.27
2019-02-06T09:22:43.704Z,28.10
2019-02-06T09:25:15.484Z,25.23
2019-02-06T09:27:43.991Z,24.53
2019-02-06T09:30:15.960Z,26.03
2019-02-06T09:32:44.431Z,26.70
2019-02-06T09:35:13.013Z,24.40
2019-02-06T09:37:41.796Z,26.53
2019-02-06T09:40:13.666Z,25.90
2019-02-06T09:42:42.105Z,25.53
2019-02-06T09:45:12.611Z,23.27
2019-02-06T09:47:41.108Z,24.90
2019-02-06T09:50:12.777Z,21.60
2019-02-06T09:52:41.656Z,25.40
2019-02-06T09:55:10.239Z,24.57
2019-02-06T09:57:38.668Z,22.10
2019-02-06T10:00:13.494Z,26.10
2019-02-06T10:02:42.001Z,25.10
2019-02-06T10:05:11.198Z,23.20
2019-02-06T10:07:40.008Z,25.10
2019-02-06T10:10:14.261Z,26.07
2019-02-06T10:12:42.701Z,21.67
2019-02-06T10:15:23.224Z,22.67
2019-02-06T10:17:51.793Z,21.97
2019-02-06T10:20:23.377Z,21.00
2019-02-06T10:22:51.813Z,23.70
2019-02-06T10:25:20.517Z,26.03
2019-02-06T10:27:48.948Z,19.77
2019-02-06T10:30:29.636Z,21.90
2019-02-06T10:32:58.517Z,21.97
2019-02-06T10:35:27.048Z,19.70
2019-02-06T10:37:55.564Z,20.37
2019-02-06T10:40:24.089Z,21.33
2019-02-06T10:42:52.528Z,20.70
2019-02-06T10:45:21.457Z,21.73
2019-02-06T10:47:50.168Z,26.00
2019-02-06T10:50:21.340Z,20.93
2019-02-06T10:52:49.843Z,23.40
2019-02-06T10:55:18.644Z,22.87
2019-02-06T10:57:47.215Z,20.90
2019-02-06T11:00:21.400Z,21.10
2019-02-06T11:02:49.914Z,21.83
2019-02-06T11:05:18.512Z,21.50
2019-02-06T11:07:46.945Z,22.03
2019-02-06T11:10:18.518Z,20.73
2019-02-06T11:12:47.026Z,22.43
2019-02-06T11:15:16.290Z,19.27
2019-02-06T11:17:44.790Z,22.90
2019-02-06T11:20:19.196Z,19.57
2019-02-06T11:22:47.700Z,19.37
2019-02-06T11:25:16.941Z,20.10
2019-02-06T11:27:45.525Z,21.23
2019-02-06T11:30:22.301Z,17.57
2019-02-06T11:32:51.314Z,20.50
2019-02-06T11:35:19.918Z,21.57
2019-02-06T11:37:48.445Z,19.70
2019-02-06T11:40:24.742Z,19.63
2019-02-06T11:42:54.190Z,17.93
2019-02-06T11:45:33.068Z,18.53
2019-02-06T11:48:01.526Z,20.33
2019-02-06T11:50:32.547Z,18.33
2019-02-06T11:53:01.076Z,21.97
2019-02-06T11:55:31.457Z,20.53
2019-02-06T11:57:59.992Z,20.23
2019-02-06T12:00:31.220Z,20.40
2019-02-06T12:02:59.686Z,21.10
2019-02-06T12:05:28.174Z,21.90
2019-02-06T12:07:56.701Z,18.67
2019-02-06T12:10:25.209Z,19.33
2019-02-06T12:12:53.865Z,20.20
2019-02-06T12:15:22.821Z,21.20
2019-02-06T12:17:51.279Z,18.33
2019-02-06T12:20:24.063Z,18.00
2019-02-06T12:22:52.669Z,19.63
2019-02-06T12:25:21.176Z,20.10
2019-02-06T12:27:51.169Z,19.13
2019-02-06T12:30:31.040Z,19.30
2019-02-06T12:32:59.552Z,22.30
2019-02-06T12:35:28.065Z,17.60
2019-02-06T12:37:56.668Z,18.20
2019-02-06T12:40:25.541Z,19.30
2019-02-06T12:42:54.070Z,18.13
2019-02-06T12:45:23.853Z,21.30
2019-02-06T12:47:53.535Z,19.63
2019-02-06T12:50:23.402Z,19.40
2019-02-06T12:52:51.935Z,19.17
2019-02-06T12:55:35.075Z,21.00
2019-02-06T12:58:03.667Z,18.00
2019-02-06T13:00:34.824Z,20.17
2019-02-06T13:03:03.360Z,19.20
2019-02-06T13:05:31.967Z,17.20
2019-02-06T13:08:00.573Z,20.97
2019-02-06T13:10:34.088Z,19.20
2019-02-06T13:12:59.339Z,19.57
2019-02-06T13:15:27.771Z,18.03
2019-02-06T13:17:56.570Z,18.53
2019-02-06T13:20:27.244Z,18.67
2019-02-06T13:22:55.947Z,16.73
2019-02-06T13:25:24.477Z,17.90
2019-02-06T13:27:53.054Z,21.43
2019-02-06T13:30:30.730Z,19.10
2019-02-06T13:32:59.236Z,19.97
2019-02-06T13:35:27.834Z,19.47
2019-02-06T13:37:56.345Z,20.20
2019-02-06T13:40:26.946Z,18.03
2019-02-06T13:42:55.718Z,22.20
2019-02-06T13:45:27.086Z,18.50
2019-02-06T13:47:55.757Z,20.80
2019-02-06T13:50:24.855Z,26.07
2019-02-06T13:52:53.359Z,20.30
2019-02-06T13:55:21.892Z,22.00
2019-02-06T13:57:50.392Z,20.17
2019-02-06T14:00:24.538Z,23.73
2019-02-06T14:02:53.109Z,20.80
2019-02-06T14:05:24.615Z,19.90
2019-02-06T14:07:54.597Z,24.50
2019-02-06T14:10:28.154Z,21.00
2019-02-06T14:12:56.725Z,26.80
2019-02-06T14:15:30.973Z,23.87
2019-02-06T14:17:59.478Z,23.23
2019-02-06T14:20:28.964Z,22.97
2019-02-06T14:23:00.513Z,23.27
2019-02-06T14:25:32.075Z,22.23
2019-02-06T14:28:15.980Z,24.80
2019-02-06T14:30:50.226Z,26.70
2019-02-06T14:33:30.463Z,22.53
2019-02-06T14:36:23.388Z,24.23
2019-02-06T14:39:00.632Z,24.07
2019-02-06T14:41:35.188Z,24.67
2019-02-06T14:44:09.709Z,22.90
2019-02-06T14:47:05.301Z,21.43
2019-02-06T14:49:48.620Z,24.53
2019-02-06T14:52:25.634Z,20.50
2019-02-06T14:54:57.240Z,26.00
2019-02-06T14:57:57.470Z,26.17
2019-02-06T15:00:59.871Z,23.20
2019-02-06T15:03:26.394Z,25.13
2019-02-06T15:06:10.319Z,24.90
2019-02-06T15:09:16.165Z,25.73
2019-02-06T15:11:56.777Z,26.00
2019-02-06T15:14:48.190Z,25.27
2019-02-06T15:17:20.008Z,24.67
2019-02-06T15:19:55.188Z,27.20
2019-02-06T15:22:38.941Z,25.63
2019-02-06T15:25:16.220Z,29.60
2019-02-06T15:27:47.859Z,26.13
2019-02-06T15:30:25.574Z,24.70
2019-02-06T15:33:05.994Z,24.97
2019-02-06T15:35:43.829Z,26.15
2019-02-06T15:38:21.079Z,25.40
2019-02-06T15:40:55.497Z,26.37
2019-02-06T15:43:39.110Z,24.57
2019-02-06T15:46:33.723Z,26.00
2019-02-06T15:49:14.387Z,27.47
2019-02-06T15:52:06.822Z,25.13
2019-02-06T15:54:53.027Z,26.37
2019-02-06T15:57:33.888Z,22.50
2019-02-06T16:00:23.716Z,23.00
2019-02-06T16:03:19.603Z,21.27
2019-02-06T16:06:04.121Z,21.83
2019-02-06T16:08:43.806Z,21.23
2019-02-06T16:11:18.191Z,24.13
2019-02-06T16:13:52.762Z,25.37
2019-02-06T16:16:27.377Z,22.97
2019-02-06T16:19:14.207Z,21.17
2019-02-06T16:21:53.371Z,25.70
2019-02-06T16:24:32.601Z,23.60
2019-02-06T16:27:12.839Z,21.83
2019-02-06T16:30:03.891Z,23.10
2019-02-06T16:33:04.259Z,22.67
2019-02-06T16:35:38.794Z,21.97
2019-02-06T16:38:28.518Z,18.97
2019-02-06T16:41:21.781Z,19.60
2019-02-06T16:44:10.223Z,20.70
2019-02-06T16:47:15.290Z,19.67
2019-02-06T16:50:11.039Z,23.50
2019-02-06T16:53:00.281Z,23.20
2019-02-06T16:55:46.805Z,22.43
2019-02-06T16:58:35.915Z,23.87
2019-02-06T17:01:21.881Z,24.20
2019-02-06T17:03:56.216Z,25.13
2019-02-06T17:06:36.737Z,22.13
2019-02-06T17:09:14.391Z,22.20
2019-02-06T17:11:51.921Z,23.83
2019-02-06T17:14:26.486Z,22.50
2019-02-06T17:17:07.136Z,27.40
2019-02-06T17:19:50.845Z,23.53
2019-02-06T17:22:22.533Z,23.60
2019-02-06T17:25:00.448Z,23.33
2019-02-06T17:27:50.249Z,23.57
2019-02-06T17:30:47.958Z,24.03
2019-02-06T17:33:45.405Z,22.80
2019-02-06T17:36:49.246Z,23.00
2019-02-06T17:39:40.538Z,24.17
2019-02-06T17:42:15.895Z,21.27
2019-02-06T17:45:05.151Z,22.80
2019-02-06T17:47:45.483Z,23.80
2019-02-06T17:50:20.601Z,23.60
2019-02-06T17:53:08.945Z,21.90
2019-02-06T17:55:37.481Z,22.47
2019-02-06T17:58:06.650Z,24.70
2019-02-06T18:00:50.236Z,22.70
2019-02-06T18:03:18.884Z,28.27
2019-02-06T18:05:48.271Z,21.40
2019-02-06T18:08:16.780Z,20.70
2019-02-06T18:10:45.360Z,24.47
2019-02-06T18:13:13.824Z,26.07
2019-02-06T18:15:42.264Z,22.50
2019-02-06T18:18:10.720Z,25.47
2019-02-06T18:20:39.156Z,21.90
2019-02-06T18:23:07.687Z,24.70
2019-02-06T18:25:36.194Z,25.00
2019-02-06T18:28:04.893Z,24.70
2019-02-06T18:30:33.550Z,25.13
2019-02-06T18:33:02.317Z,23.40
2019-02-06T18:35:30.989Z,23.30
2019-02-06T18:37:59.686Z,23.70
2019-02-06T18:40:28.532Z,23.00
2019-02-06T18:42:57.700Z,23.37
2019-02-06T18:45:27.893Z,22.00
2019-02-06T18:48:05.151Z,21.10
2019-02-06T18:50:34.860Z,22.90
2019-02-06T18:53:04.423Z,21.50
2019-02-06T18:55:33.308Z,20.93
2019-02-06T18:58:01.837Z,21.97
2019-02-06T19:00:32.976Z,21.10
2019-02-06T19:03:04.723Z,20.77
2019-02-06T19:05:36.358Z,24.50
2019-02-06T19:08:05.286Z,22.27
2019-02-06T19:10:33.968Z,24.73
2019-02-06T19:13:02.496Z,26.80
2019-02-06T19:15:31.713Z,26.50
2019-02-06T19:18:00.257Z,20.07
2019-02-06T19:20:28.930Z,21.70
2019-02-06T19:22:57.695Z,24.93
2019-02-06T19:25:26.379Z,23.30
2019-02-06T19:27:56.340Z,22.43
2019-02-06T19:30:30.674Z,23.37
2019-02-06T19:32:59.587Z,25.10
2019-02-06T19:35:28.599Z,22.07
2019-02-06T19:37:57.302Z,25.27
2019-02-06T19:40:26.197Z,20.80
2019-02-06T19:43:01.954Z,24.30
2019-02-06T19:45:26.101Z,21.07
2019-02-06T19:47:55.443Z,22.93
2019-02-06T19:50:29.774Z,28.47
2019-02-06T19:52:58.795Z,25.70
2019-02-06T19:55:27.404Z,27.30
2019-02-06T19:57:56.121Z,23.87
2019-02-06T20:00:32.664Z,25.80
2019-02-06T20:03:01.444Z,24.83
2019-02-06T20:05:30.144Z,24.20
2019-02-06T20:07:58.994Z,20.27
2019-02-06T20:10:36.466Z,25.87
2019-02-06T20:13:11.470Z,23.30
2019-02-06T20:15:36.280Z,22.43
2019-02-06T20:18:05.560Z,22.37
2019-02-06T20:20:34.710Z,25.23
2019-02-06T20:23:03.546Z,26.23
2019-02-06T20:25:32.368Z,24.97
2019-02-06T20:28:01.187Z,25.90
2019-02-06T20:30:31.635Z,22.17
2019-02-06T20:33:00.521Z,25.37
2019-02-06T20:35:30.272Z,29.30
2019-02-06T20:37:59.286Z,24.27
2019-02-06T20:40:33.615Z,24.33
2019-02-06T20:43:02.609Z,26.77
2019-02-06T20:45:31.873Z,26.53
2019-02-06T20:48:00.545Z,26.33
2019-02-06T20:50:34.777Z,27.53
2019-02-06T20:53:04.204Z,32.80
2019-02-06T20:55:32.838Z,24.90
2019-02-06T20:58:02.223Z,25.23
2019-02-06T21:00:41.783Z,28.90
2019-02-06T21:03:10.361Z,27.03
2019-02-06T21:05:39.189Z,26.07
2019-02-06T21:08:07.907Z,28.90
2019-02-06T21:10:37.210Z,27.13
2019-02-06T21:13:06.827Z,28.77
2019-02-06T21:15:35.601Z,29.07
2019-02-06T21:18:04.654Z,29.67
2019-02-06T21:20:33.361Z,30.53
2019-02-06T21:23:02.240Z,30.90
2019-02-06T21:25:30.842Z,32.03
2019-02-06T21:27:59.483Z,31.20
2019-02-06T21:30:31.122Z,29.87
2019-02-06T21:32:59.627Z,28.50
2019-02-06T21:35:28.230Z,29.60
2019-02-06T21:37:56.938Z,27.57
2019-02-06T21:40:30.544Z,29.20
2019-02-06T21:42:59.044Z,35.70
2019-02-06T21:45:27.619Z,31.03
2019-02-06T21:47:56.127Z,26.97
2019-02-06T21:50:25.332Z,30.30
2019-02-06T21:52:54.476Z,32.63
2019-02-06T21:55:24.333Z,29.70
2019-02-06T21:57:52.858Z,28.17
2019-02-06T22:00:26.651Z,27.93
2019-02-06T22:02:55.164Z,32.57
2019-02-06T22:05:23.762Z,30.33
2019-02-06T22:07:52.544Z,33.17
2019-02-06T22:10:22.346Z,30.83
2019-02-06T22:12:50.854Z,27.40
2019-02-06T22:15:25.123Z,32.40
2019-02-06T22:17:53.635Z,30.30
2019-02-06T22:20:22.160Z,32.97
2019-02-06T22:22:50.740Z,32.63
2019-02-06T22:25:19.290Z,31.07
2019-02-06T22:27:50.510Z,33.53
2019-02-06T22:30:23.209Z,31.57
2019-02-06T22:32:52.021Z,37.63
2019-02-06T22:35:21.034Z,29.47
2019-02-06T22:37:49.536Z,32.63
2019-02-06T22:40:19.840Z,31.00
2019-02-06T22:42:48.407Z,35.13
2019-02-06T22:45:18.811Z,32.23
2019-02-06T22:47:47.383Z,31.60
2019-02-06T22:50:18.381Z,30.77
2019-02-06T22:52:46.885Z,32.37
2019-02-06T22:55:15.881Z,32.63
2019-02-06T22:57:44.320Z,31.60
2019-02-06T23:00:39.887Z,31.80
2019-02-06T23:03:08.391Z,35.30
2019-02-06T23:05:36.929Z,33.70
2019-02-06T23:08:05.538Z,32.20
2019-02-06T23:10:36.720Z,34.33
2019-02-06T23:13:04.234Z,52.87
2019-02-06T23:15:32.977Z,39.37
2019-02-06T23:18:01.480Z,36.87
2019-02-06T23:20:30.016Z,40.07
2019-02-06T23:22:58.522Z,38.23
2019-02-06T23:25:26.987Z,39.37
2019-02-06T23:27:55.422Z,37.47
2019-02-06T23:30:23.929Z,44.10
2019-02-06T23:32:52.459Z,43.87
2019-02-06T23:35:20.898Z,40.03
2019-02-06T23:37:49.359Z,38.40
2019-02-06T23:40:17.939Z,40.80
2019-02-06T23:42:46.397Z,49.40
2019-02-06T23:45:14.970Z,43.30
2019-02-06T23:47:43.704Z,42.17
2019-02-06T23:50:16.540Z,42.40
2019-02-06T23:52:45.239Z,42.00
2019-02-06T23:55:14.114Z,42.13
2019-02-06T23:57:42.644Z,39.40
